createdAt,value
2022-10-16T00:00:36.681Z,1.700000048
2022-10-16T00:01:37.265Z,2.200000048
2022-10-16T00:02:37.759Z,1.899999976
2022-10-16T00:03:38.188Z,1.600000024
2022-10-16T00:04:38.720Z,2
2022-10-16T00:05:39.270Z,1.5
2022-10-16T00:06:40.231Z,1.700000048
2022-10-16T00:08:11.719Z,1.899999976
2022-10-16T00:09:12.173Z,2.200000048
2022-10-16T00:10:12.660Z,2
2022-10-16T00:11:13.208Z,1.899999976
2022-10-16T00:12:13.680Z,1.899999976
2022-10-16T00:13:14.211Z,1.899999976
2022-10-16T00:14:14.668Z,1.799999952
2022-10-16T00:15:15.119Z,2.200000048
2022-10-16T00:16:15.664Z,2
2022-10-16T00:17:17.047Z,2.299999952
2022-10-16T00:18:18.500Z,2.799999952
2022-10-16T00:19:19.065Z,1.899999976
2022-10-16T00:20:19.565Z,2.200000048
2022-10-16T00:21:20.085Z,2.299999952
2022-10-16T00:22:22.789Z,1.700000048
2022-10-16T00:23:23.078Z,3.400000095
2022-10-16T00:24:23.568Z,4.699999809
2022-10-16T00:25:24.036Z,5.099999905
2022-10-16T00:26:24.521Z,3.5
2022-10-16T00:27:25.745Z,5
2022-10-16T00:28:26.290Z,1.799999952
2022-10-16T00:29:26.720Z,2.799999952
2022-10-16T00:30:27.228Z,3
2022-10-16T00:31:27.714Z,3
2022-10-16T00:32:28.664Z,2.200000048
2022-10-16T00:33:28.900Z,2
2022-10-16T00:34:29.404Z,2.700000048
2022-10-16T00:35:29.963Z,2.299999952
2022-10-16T00:36:30.478Z,2.799999952
2022-10-16T00:37:31.703Z,3
2022-10-16T00:38:32.296Z,4
2022-10-16T00:39:32.935Z,3
2022-10-16T00:40:33.451Z,2.5
2022-10-16T00:41:34.002Z,2.700000048
2022-10-16T00:42:34.498Z,3.400000095
2022-10-16T00:43:35.059Z,3.599999905
2022-10-16T00:44:36.222Z,3.400000095
2022-10-16T00:45:37.048Z,1.899999976
2022-10-16T00:46:37.851Z,2.099999905
2022-10-16T00:47:39.223Z,1.799999952
2022-10-16T00:49:10.181Z,3
2022-10-16T00:50:10.702Z,3
2022-10-16T00:51:11.404Z,2.700000048
2022-10-16T00:52:12.533Z,2.5
2022-10-16T00:53:13.143Z,2.5
2022-10-16T00:54:13.713Z,3.400000095
2022-10-16T00:55:14.238Z,2.900000095
2022-10-16T00:56:14.810Z,1.899999976
2022-10-16T00:58:16.612Z,2.5
2022-10-16T00:59:17.197Z,2.200000048
2022-10-16T01:00:17.672Z,2.5
2022-10-16T01:01:18.267Z,2.200000048
2022-10-16T01:02:18.798Z,3.200000048
2022-10-16T01:03:19.419Z,2.799999952
2022-10-16T01:04:20.072Z,1.799999952
2022-10-16T01:05:20.813Z,2.799999952
2022-10-16T01:06:21.400Z,2.299999952
2022-10-16T01:07:21.983Z,2.099999905
2022-10-16T01:08:23.635Z,2.099999905
2022-10-16T01:09:25.278Z,2.299999952
2022-10-16T01:10:25.942Z,2.299999952
2022-10-16T01:11:26.546Z,1.799999952
2022-10-16T01:12:27.055Z,1.899999976
2022-10-16T01:13:27.581Z,1.700000048
2022-10-16T01:14:28.283Z,2.5
2022-10-16T01:15:28.920Z,1.399999976
2022-10-16T01:16:29.517Z,1.799999952
2022-10-16T01:17:30.759Z,1.899999976
2022-10-16T01:18:31.295Z,2.5
2022-10-16T01:19:31.866Z,2
2022-10-16T01:20:32.510Z,2.200000048
2022-10-16T01:21:33.205Z,2.200000048
2022-10-16T01:22:33.775Z,2.099999905
2022-10-16T01:23:34.300Z,2.200000048
2022-10-16T01:24:34.888Z,1.899999976
2022-10-16T01:25:35.530Z,1.299999952
2022-10-16T01:26:36.144Z,2.200000048
2022-10-16T01:27:37.311Z,1.799999952
2022-10-16T01:28:37.958Z,2.299999952
2022-10-16T01:29:38.332Z,1.600000024
2022-10-16T01:30:39.330Z,1.600000024
2022-10-16T01:32:10.290Z,1.899999976
2022-10-16T01:33:11.036Z,2.099999905
2022-10-16T01:34:11.596Z,1.799999952
2022-10-16T01:35:12.093Z,2.200000048
2022-10-16T01:36:12.610Z,1.799999952
2022-10-16T01:37:13.289Z,2.099999905
2022-10-16T01:38:14.623Z,1.600000024
2022-10-16T01:39:15.264Z,1.600000024
2022-10-16T01:40:15.788Z,1.700000048
2022-10-16T01:41:16.288Z,1.899999976
2022-10-16T01:42:16.800Z,1.399999976
2022-10-16T01:43:17.538Z,1.399999976
2022-10-16T01:44:18.152Z,1.399999976
2022-10-16T01:45:18.789Z,1.399999976
2022-10-16T01:46:19.334Z,1.700000048
2022-10-16T01:47:19.879Z,1.600000024
2022-10-16T01:48:21.178Z,1.600000024
2022-10-16T01:49:21.809Z,1.700000048
2022-10-16T01:50:22.421Z,1.200000048
2022-10-16T01:51:23.043Z,1.5
2022-10-16T01:52:23.870Z,1.600000024
2022-10-16T01:53:24.164Z,1.399999976
2022-10-16T01:54:24.765Z,1.5
2022-10-16T01:55:25.417Z,1.399999976
2022-10-16T01:56:26.139Z,1.600000024
2022-10-16T01:57:26.766Z,1.700000048
2022-10-16T01:58:27.989Z,1.600000024
2022-10-16T01:59:28.507Z,1.399999976
2022-10-16T02:00:29.160Z,1.299999952
2022-10-16T02:01:29.854Z,1
2022-10-16T02:02:30.500Z,1.399999976
2022-10-16T02:03:31.039Z,1.299999952
2022-10-16T02:04:31.558Z,1.399999976
2022-10-16T02:05:32.104Z,1.799999952
2022-10-16T02:06:32.865Z,1.600000024
2022-10-16T02:07:33.558Z,1.299999952
2022-10-16T02:08:35.151Z,2
2022-10-16T02:09:35.719Z,1.100000024
2022-10-16T02:10:36.350Z,1.700000048
2022-10-16T02:11:36.889Z,1.200000048
2022-10-16T02:12:37.593Z,1.200000048
2022-10-16T02:13:38.269Z,1.100000024
2022-10-16T02:15:10.240Z,1.299999952
2022-10-16T02:16:10.751Z,1.5
2022-10-16T02:17:11.304Z,1.299999952
2022-10-16T02:18:12.771Z,1.299999952
2022-10-16T02:19:13.422Z,1.299999952
2022-10-16T02:20:14.077Z,1.399999976
2022-10-16T02:21:14.752Z,1.200000048
2022-10-16T02:22:16.229Z,1.200000048
2022-10-16T02:23:16.727Z,1
2022-10-16T02:24:17.501Z,1
2022-10-16T02:25:18.142Z,2.099999905
2022-10-16T02:26:18.749Z,1.799999952
2022-10-16T02:27:19.285Z,1.299999952
2022-10-16T02:28:20.799Z,1.299999952
2022-10-16T02:29:21.479Z,1.399999976
2022-10-16T02:30:22.155Z,1.600000024
2022-10-16T02:31:22.818Z,1.299999952
2022-10-16T02:32:23.713Z,1.399999976
2022-10-16T02:33:24.016Z,1.600000024
2022-10-16T02:34:24.582Z,1.5
2022-10-16T02:35:25.260Z,1.299999952
2022-10-16T02:36:25.909Z,1.200000048
2022-10-16T02:37:26.601Z,1.299999952
2022-10-16T02:38:27.754Z,1.299999952
2022-10-16T02:39:28.340Z,1.100000024
2022-10-16T02:40:28.858Z,1.399999976
2022-10-16T02:41:29.617Z,1.399999976
2022-10-16T02:42:30.268Z,1.100000024
2022-10-16T02:43:30.899Z,1.100000024
2022-10-16T02:44:31.492Z,1.200000048
2022-10-16T02:45:32.193Z,1.600000024
2022-10-16T02:46:32.903Z,1.200000048
2022-10-16T02:47:33.618Z,1.200000048
2022-10-16T02:48:35.080Z,1.899999976
2022-10-16T02:49:35.747Z,1.100000024
2022-10-16T02:50:36.260Z,0.899999976
2022-10-16T02:51:36.862Z,1.200000048
2022-10-16T02:52:37.655Z,1.299999952
2022-10-16T02:54:08.917Z,1.200000048
2022-10-16T02:55:09.564Z,1.200000048
2022-10-16T02:56:10.185Z,1.100000024
2022-10-16T02:57:10.604Z,1.299999952
2022-10-16T02:58:11.834Z,1
2022-10-16T02:59:12.470Z,0.899999976
2022-10-16T03:00:13.184Z,1.200000048
2022-10-16T03:01:13.826Z,1.100000024
2022-10-16T03:02:14.249Z,1.200000048
2022-10-16T03:03:14.775Z,0.800000012
2022-10-16T03:04:15.500Z,1.200000048
2022-10-16T03:05:16.296Z,1.600000024
2022-10-16T03:06:16.780Z,1.100000024
2022-10-16T03:07:17.323Z,1
2022-10-16T03:08:18.731Z,1.5
2022-10-16T03:09:19.250Z,1.200000048
2022-10-16T03:10:19.922Z,1.299999952
2022-10-16T03:11:20.900Z,1
2022-10-16T03:12:22.242Z,1.5
2022-10-16T03:13:22.777Z,1.100000024
2022-10-16T03:14:23.305Z,1.100000024
2022-10-16T03:15:23.907Z,1.100000024
2022-10-16T03:16:24.546Z,1.100000024
2022-10-16T03:17:25.338Z,1.200000048
2022-10-16T03:18:26.716Z,1.100000024
2022-10-16T03:19:27.252Z,1.399999976
2022-10-16T03:20:27.821Z,2.099999905
2022-10-16T03:21:28.426Z,1.899999976
2022-10-16T03:22:29.141Z,2.099999905
2022-10-16T03:24:30.478Z,1.700000048
2022-10-16T03:25:31.058Z,1.700000048
2022-10-16T03:26:31.680Z,1.899999976
2022-10-16T03:27:32.486Z,1.899999976
2022-10-16T03:28:33.872Z,1.399999976
2022-10-16T03:29:34.483Z,1
2022-10-16T03:30:35.034Z,1
2022-10-16T03:31:35.670Z,1.100000024
2022-10-16T03:33:36.986Z,1.299999952
2022-10-16T03:35:08.369Z,1.399999976
2022-10-16T03:36:08.975Z,1.100000024
2022-10-16T03:37:09.551Z,1.200000048
2022-10-16T03:38:10.768Z,1.5
2022-10-16T03:39:12.318Z,1.200000048
2022-10-16T03:40:13.009Z,1.399999976
2022-10-16T03:41:13.649Z,1.5
2022-10-16T03:42:14.290Z,1.100000024
2022-10-16T03:44:15.589Z,1.299999952
2022-10-16T03:45:16.761Z,1.100000024
2022-10-16T03:46:17.411Z,1.299999952
2022-10-16T03:47:17.904Z,1
2022-10-16T03:48:18.411Z,1.200000048
2022-10-16T03:49:19.489Z,2
2022-10-16T03:50:20.229Z,2.099999905
2022-10-16T03:51:20.845Z,1.100000024
2022-10-16T03:52:21.502Z,1.100000024
2022-10-16T03:53:22.064Z,1
2022-10-16T03:54:22.593Z,1.100000024
2022-10-16T03:55:23.116Z,1.200000048
2022-10-16T03:56:23.780Z,1.100000024
2022-10-16T03:57:24.788Z,1.200000048
2022-10-16T03:58:25.028Z,1.299999952
2022-10-16T03:59:26.477Z,1.100000024
2022-10-16T04:00:26.988Z,1
2022-10-16T04:01:27.644Z,1
2022-10-16T04:02:28.246Z,1.200000048
2022-10-16T04:03:28.834Z,0.899999976
2022-10-16T04:04:29.429Z,1.200000048
2022-10-16T04:05:29.953Z,1.200000048
2022-10-16T04:06:30.481Z,1.100000024
2022-10-16T04:07:31.144Z,1.399999976
2022-10-16T04:08:31.779Z,0.899999976
2022-10-16T04:09:33.108Z,0.899999976
2022-10-16T04:10:33.616Z,1.299999952
2022-10-16T04:11:34.126Z,1.100000024
2022-10-16T04:12:34.650Z,0.800000012
2022-10-16T04:13:35.315Z,1.200000048
2022-10-16T04:14:36.073Z,0.899999976
2022-10-16T04:15:37.781Z,1
2022-10-16T04:17:08.626Z,1
2022-10-16T04:18:09.157Z,0.899999976
2022-10-16T04:19:10.584Z,1.200000048
2022-10-16T04:20:11.260Z,1.200000048
2022-10-16T04:21:11.889Z,1.100000024
2022-10-16T04:22:12.490Z,0.899999976
2022-10-16T04:23:13.155Z,0.899999976
2022-10-16T04:24:13.825Z,1.899999976
2022-10-16T04:25:14.596Z,0.899999976
2022-10-16T04:26:15.251Z,0.600000024
2022-10-16T04:27:15.893Z,1.100000024
2022-10-16T04:28:16.531Z,0.899999976
2022-10-16T04:29:18.037Z,1.100000024
2022-10-16T04:30:18.724Z,1.299999952
2022-10-16T04:31:19.415Z,1.100000024
2022-10-16T04:32:20.093Z,1.399999976
2022-10-16T04:33:20.864Z,1.200000048
2022-10-16T04:34:21.458Z,0.899999976
2022-10-16T04:35:22.068Z,0.899999976
2022-10-16T04:36:24.374Z,1.200000048
2022-10-16T04:37:23.687Z,1
2022-10-16T04:38:24.170Z,1.100000024
2022-10-16T04:39:25.579Z,1.200000048
2022-10-16T04:40:26.112Z,1.399999976
2022-10-16T04:41:26.705Z,1.600000024
2022-10-16T04:42:27.452Z,1.100000024
2022-10-16T04:44:28.855Z,1.600000024
2022-10-16T04:45:29.365Z,1.100000024
2022-10-16T04:46:30.761Z,1.299999952
2022-10-16T04:47:31.404Z,1.200000048
2022-10-16T04:48:32.110Z,1.200000048
2022-10-16T04:49:33.628Z,1.700000048
2022-10-16T04:50:34.251Z,0.800000012
2022-10-16T04:51:34.873Z,1.100000024
2022-10-16T04:53:36.226Z,1.399999976
2022-10-16T04:55:07.269Z,1.100000024
2022-10-16T04:56:07.886Z,1.399999976
2022-10-16T04:57:08.411Z,0.800000012
2022-10-16T04:58:09.002Z,1
2022-10-16T04:59:10.381Z,0.800000012
2022-10-16T05:00:10.988Z,1.100000024
2022-10-16T05:01:11.646Z,0.899999976
2022-10-16T05:02:12.269Z,0.699999988
2022-10-16T05:03:12.929Z,1
2022-10-16T05:04:13.409Z,1
2022-10-16T05:05:14.093Z,0.800000012
2022-10-16T05:06:14.745Z,1.100000024
2022-10-16T05:07:15.431Z,1
2022-10-16T05:08:15.966Z,0.800000012
2022-10-16T05:09:17.262Z,0.899999976
2022-10-16T05:10:17.792Z,1
2022-10-16T05:11:18.462Z,1
2022-10-16T05:12:19.137Z,0.800000012
2022-10-16T05:13:19.838Z,1
2022-10-16T05:14:20.670Z,1
2022-10-16T05:15:21.227Z,0.800000012
2022-10-16T05:16:22.740Z,1
2022-10-16T05:17:23.956Z,0.899999976
2022-10-16T05:18:24.107Z,1
2022-10-16T05:19:27.625Z,0.800000012
2022-10-16T05:20:25.838Z,1.100000024
2022-10-16T05:21:26.470Z,0.800000012
2022-10-16T05:22:27.105Z,0.800000012
2022-10-16T05:23:27.743Z,1.100000024
2022-10-16T05:24:28.351Z,1.200000048
2022-10-16T05:25:28.961Z,1.100000024
2022-10-16T05:26:29.622Z,0.899999976
2022-10-16T05:27:30.257Z,1.5
2022-10-16T05:28:31.818Z,0.800000012
2022-10-16T05:29:33.299Z,1
2022-10-16T05:30:33.858Z,0.800000012
2022-10-16T05:31:34.389Z,1
2022-10-16T05:32:34.931Z,0.899999976
2022-10-16T05:33:35.524Z,0.699999988
2022-10-16T05:35:10.083Z,0.800000012
2022-10-16T05:36:07.403Z,0.699999988
2022-10-16T05:37:07.945Z,1
2022-10-16T05:38:09.311Z,0.899999976
2022-10-16T05:39:09.931Z,0.800000012
2022-10-16T05:40:11.127Z,0.899999976
2022-10-16T05:41:11.806Z,1.100000024
2022-10-16T05:42:12.493Z,1.100000024
2022-10-16T05:43:13.084Z,1.5
2022-10-16T05:44:14.563Z,0.800000012
2022-10-16T05:45:15.244Z,0.800000012
2022-10-16T05:46:15.851Z,1.299999952
2022-10-16T05:47:16.562Z,1.100000024
2022-10-16T05:48:17.184Z,1.600000024
2022-10-16T05:49:19.249Z,1.200000048
2022-10-16T05:50:20.026Z,1
2022-10-16T05:51:20.967Z,1.200000048
2022-10-16T05:52:21.723Z,0.899999976
2022-10-16T05:53:22.418Z,1.200000048
2022-10-16T05:54:23.597Z,1
2022-10-16T05:55:24.196Z,1.100000024
2022-10-16T05:56:24.775Z,1
2022-10-16T05:57:25.964Z,1
2022-10-16T05:58:26.335Z,1.100000024
2022-10-16T05:59:27.803Z,1.100000024
2022-10-16T06:00:28.390Z,1.200000048
2022-10-16T06:01:29.059Z,0.899999976
2022-10-16T06:02:29.675Z,1
2022-10-16T06:03:30.375Z,1.299999952
2022-10-16T06:04:31.094Z,1.100000024
2022-10-16T06:05:31.714Z,1.399999976
2022-10-16T06:06:32.297Z,0.800000012
2022-10-16T06:07:32.914Z,0.800000012
2022-10-16T06:08:33.631Z,0.800000012
2022-10-16T06:09:34.852Z,0.800000012
2022-10-16T06:11:06.302Z,1.200000048
2022-10-16T06:12:06.850Z,0.800000012
2022-10-16T06:13:07.439Z,1.100000024
2022-10-16T06:14:08.155Z,0.899999976
2022-10-16T06:15:08.799Z,0.699999988
2022-10-16T06:16:09.514Z,0.800000012
2022-10-16T06:17:11.108Z,0.899999976
2022-10-16T06:18:11.661Z,1
2022-10-16T06:19:12.282Z,0.899999976
2022-10-16T06:20:13.734Z,0.800000012
2022-10-16T06:21:14.430Z,0.600000024
2022-10-16T06:22:15.166Z,0.800000012
2022-10-16T06:23:15.729Z,0.800000012
2022-10-16T06:24:16.265Z,0.800000012
2022-10-16T06:25:16.845Z,0.800000012
2022-10-16T06:26:17.599Z,1
2022-10-16T06:27:18.261Z,0.699999988
2022-10-16T06:28:19.038Z,0.800000012
2022-10-16T06:29:19.523Z,0.899999976
2022-10-16T06:30:21.134Z,0.800000012
2022-10-16T06:31:22.024Z,1.100000024
2022-10-16T06:32:22.714Z,0.800000012
2022-10-16T06:33:23.465Z,0.5
2022-10-16T06:34:24.040Z,1.100000024
2022-10-16T06:35:24.664Z,0.699999988
2022-10-16T06:36:25.383Z,1.200000048
2022-10-16T06:37:26.412Z,0.899999976
2022-10-16T06:38:26.886Z,0.800000012
2022-10-16T06:39:27.623Z,0.800000012
2022-10-16T06:40:29.087Z,0.899999976
2022-10-16T06:41:29.723Z,0.699999988
2022-10-16T06:42:30.407Z,1.100000024
2022-10-16T06:43:31.173Z,1.200000048
2022-10-16T06:44:31.825Z,1
2022-10-16T06:45:32.508Z,1.299999952
2022-10-16T06:46:33.756Z,1
2022-10-16T06:47:34.312Z,1.200000048
2022-10-16T06:48:35.357Z,1.200000048
2022-10-16T06:50:07.126Z,1.299999952
2022-10-16T06:51:08.077Z,1
2022-10-16T06:52:08.440Z,1.200000048
2022-10-16T06:53:09.022Z,1.399999976
2022-10-16T06:54:10.739Z,1.299999952
2022-10-16T06:55:11.360Z,1.399999976
2022-10-16T06:56:12.056Z,1.299999952
2022-10-16T06:57:12.735Z,1.100000024
2022-10-16T06:58:13.303Z,1.5
2022-10-16T06:59:13.897Z,1.200000048
2022-10-16T07:00:15.180Z,1.299999952
2022-10-16T07:01:15.806Z,1.200000048
2022-10-16T07:02:16.494Z,1.399999976
2022-10-16T07:03:17.123Z,1.700000048
2022-10-16T07:04:17.730Z,2.5
2022-10-16T07:05:18.255Z,1.600000024
2022-10-16T07:06:18.945Z,1.200000048
2022-10-16T07:07:19.572Z,1.100000024
2022-10-16T07:08:20.206Z,1.5
2022-10-16T07:09:20.982Z,2.099999905
2022-10-16T07:10:22.169Z,1.299999952
2022-10-16T07:11:22.760Z,1.100000024
2022-10-16T07:12:23.763Z,1.399999976
2022-10-16T07:13:24.102Z,1.299999952
2022-10-16T07:14:24.785Z,1.299999952
2022-10-16T07:15:25.297Z,1.299999952
2022-10-16T07:16:25.813Z,1.299999952
2022-10-16T07:17:27.003Z,1.799999952
2022-10-16T07:18:27.678Z,1.700000048
2022-10-16T07:19:31.920Z,1.100000024
2022-10-16T07:20:29.654Z,1.200000048
2022-10-16T07:21:30.241Z,1.5
2022-10-16T07:22:30.810Z,1.200000048
2022-10-16T07:23:31.479Z,1
2022-10-16T07:24:32.137Z,1
2022-10-16T07:25:32.834Z,1.700000048
2022-10-16T07:26:33.478Z,0.800000012
2022-10-16T07:27:34.922Z,1
2022-10-16T07:29:05.710Z,1
2022-10-16T07:30:09.150Z,2
2022-10-16T07:31:08.037Z,1.100000024
2022-10-16T07:32:08.658Z,1.200000048
2022-10-16T07:33:09.243Z,1.200000048
2022-10-16T07:34:09.815Z,1.200000048
2022-10-16T07:35:10.618Z,1.200000048
2022-10-16T07:36:15.848Z,1.100000024
2022-10-16T07:37:11.905Z,1
2022-10-16T07:38:13.325Z,1.100000024
2022-10-16T07:39:13.859Z,0.899999976
2022-10-16T07:40:15.314Z,1.299999952
2022-10-16T07:41:16.071Z,1.100000024
2022-10-16T07:42:16.812Z,0.899999976
2022-10-16T07:43:17.475Z,0.800000012
2022-10-16T07:44:18.032Z,1.200000048
2022-10-16T07:45:18.582Z,0.899999976
2022-10-16T07:46:19.244Z,1.399999976
2022-10-16T07:47:20.979Z,1
2022-10-16T07:48:21.709Z,1.299999952
2022-10-16T07:49:22.292Z,1.700000048
2022-10-16T07:50:23.772Z,1.299999952
2022-10-16T07:51:24.357Z,1.299999952
2022-10-16T07:52:25.020Z,0.899999976
2022-10-16T07:53:27.055Z,1.299999952
2022-10-16T07:54:27.139Z,1.200000048
2022-10-16T07:55:27.700Z,1.5
2022-10-16T07:56:28.318Z,1.200000048
2022-10-16T07:57:29.172Z,1.299999952
2022-10-16T07:58:29.587Z,1.100000024
2022-10-16T07:59:30.257Z,1.299999952
2022-10-16T08:00:31.665Z,1.399999976
2022-10-16T08:01:32.286Z,1.100000024
2022-10-16T08:02:32.906Z,0.899999976
2022-10-16T08:03:33.540Z,1.299999952
2022-10-16T08:05:05.538Z,1.299999952
2022-10-16T08:06:06.171Z,1.299999952
2022-10-16T08:07:06.731Z,1
2022-10-16T08:08:07.391Z,0.899999976
2022-10-16T08:09:07.931Z,0.899999976
2022-10-16T08:10:09.316Z,1.100000024
2022-10-16T08:11:09.964Z,1.200000048
2022-10-16T08:12:10.583Z,0.899999976
2022-10-16T08:13:11.153Z,0.899999976
2022-10-16T08:14:12.541Z,0.899999976
2022-10-16T08:15:13.241Z,1.100000024
2022-10-16T08:16:13.894Z,1
2022-10-16T08:17:14.555Z,1.299999952
2022-10-16T08:18:15.230Z,0.800000012
2022-10-16T08:19:16.568Z,0.800000012
2022-10-16T08:20:17.787Z,1.299999952
2022-10-16T08:21:20.468Z,1.200000048
2022-10-16T08:22:19.083Z,1.5
2022-10-16T08:23:19.702Z,1.399999976
2022-10-16T08:24:20.594Z,1.200000048
2022-10-16T08:25:21.120Z,1
2022-10-16T08:26:21.722Z,1.399999976
2022-10-16T08:27:22.480Z,1.200000048
2022-10-16T08:28:24.245Z,1.5
2022-10-16T08:29:24.790Z,1
2022-10-16T08:30:26.260Z,1.100000024
2022-10-16T08:31:26.846Z,1.100000024
2022-10-16T08:32:27.694Z,1.299999952
2022-10-16T08:33:28.064Z,1.5
2022-10-16T08:34:29.580Z,2
2022-10-16T08:35:30.156Z,1.899999976
2022-10-16T08:36:31.282Z,1.399999976
2022-10-16T08:37:31.925Z,1.700000048
2022-10-16T08:38:32.533Z,1.200000048
2022-10-16T08:40:04.391Z,1.600000024
2022-10-16T08:41:05.499Z,1.200000048
2022-10-16T08:42:06.761Z,1.399999976
2022-10-16T08:43:07.456Z,1.399999976
2022-10-16T08:44:08.067Z,1.5
2022-10-16T08:45:08.705Z,1.600000024
2022-10-16T08:46:09.191Z,1.100000024
2022-10-16T08:47:09.670Z,1.200000048
2022-10-16T08:48:10.434Z,0.899999976
2022-10-16T08:49:10.952Z,1.100000024
2022-10-16T08:50:11.613Z,1.600000024
2022-10-16T08:51:13.087Z,1.299999952
2022-10-16T08:52:13.607Z,1.299999952
2022-10-16T08:53:14.108Z,1.100000024
2022-10-16T08:54:14.797Z,1
2022-10-16T08:55:15.450Z,0.800000012
2022-10-16T08:56:16.054Z,0.800000012
2022-10-16T08:57:21.249Z,0.800000012
2022-10-16T08:58:17.576Z,0.899999976
2022-10-16T08:59:18.183Z,0.699999988
2022-10-16T09:00:18.774Z,0.899999976
2022-10-16T09:01:20.188Z,1.100000024
2022-10-16T09:02:20.835Z,1
2022-10-16T09:03:21.301Z,0.699999988
2022-10-16T09:04:21.878Z,1.700000048
2022-10-16T09:05:22.586Z,1.299999952
2022-10-16T09:06:23.451Z,0.699999988
2022-10-16T09:07:24.010Z,0.699999988
2022-10-16T09:08:24.520Z,9.899999619
2022-10-16T09:09:25.167Z,6.800000191
2022-10-16T09:10:26.873Z,1.200000048
2022-10-16T09:11:27.516Z,1.299999952
2022-10-16T09:12:29.197Z,0.899999976
2022-10-16T09:13:29.393Z,0.600000024
2022-10-16T09:14:29.953Z,1
2022-10-16T09:15:30.643Z,1
2022-10-16T09:16:31.318Z,1.100000024
2022-10-16T09:17:32.859Z,1
2022-10-16T09:19:03.812Z,0.699999988
2022-10-16T09:20:04.334Z,1.399999976
2022-10-16T09:21:05.667Z,0.699999988
2022-10-16T09:22:06.305Z,1
2022-10-16T09:23:07.224Z,1.200000048
2022-10-16T09:24:07.897Z,0.800000012
2022-10-16T09:25:08.326Z,0.899999976
2022-10-16T09:26:08.985Z,0.699999988
2022-10-16T09:27:10.207Z,0.800000012
2022-10-16T09:28:10.909Z,0.800000012
2022-10-16T09:29:12.090Z,1.299999952
2022-10-16T09:30:12.533Z,0.699999988
2022-10-16T09:31:14.208Z,0.400000006
2022-10-16T09:32:14.977Z,0.800000012
2022-10-16T09:33:15.694Z,0.5
2022-10-16T09:34:16.304Z,0.899999976
2022-10-16T09:35:16.895Z,0.899999976
2022-10-16T09:36:17.409Z,0.699999988
2022-10-16T09:37:18.092Z,0.600000024
2022-10-16T09:38:18.790Z,0.699999988
2022-10-16T09:39:19.486Z,0.5
2022-10-16T09:40:19.960Z,0.800000012
2022-10-16T09:41:21.070Z,1
2022-10-16T09:42:21.788Z,1.200000048
2022-10-16T09:43:22.443Z,0.699999988
2022-10-16T09:44:23.094Z,0.899999976
2022-10-16T09:45:24.260Z,0.899999976
2022-10-16T09:46:24.773Z,0.800000012
2022-10-16T09:47:25.564Z,0.899999976
2022-10-16T09:48:25.997Z,1.100000024
2022-10-16T09:49:27.128Z,1
2022-10-16T09:50:27.690Z,1.299999952
2022-10-16T09:51:28.241Z,0.899999976
2022-10-16T09:52:29.516Z,0.899999976
2022-10-16T09:53:30.547Z,1.399999976
2022-10-16T09:54:31.129Z,1
2022-10-16T09:55:31.722Z,0.899999976
2022-10-16T09:56:32.251Z,1
2022-10-16T09:58:04.320Z,1.100000024
2022-10-16T09:59:05.103Z,1
2022-10-16T10:00:05.976Z,1.100000024
2022-10-16T10:01:07.355Z,1.100000024
2022-10-16T10:02:08.061Z,0.899999976
2022-10-16T10:03:08.546Z,1
2022-10-16T10:04:09.037Z,0.899999976
2022-10-16T10:05:09.773Z,1
2022-10-16T10:06:10.623Z,1.299999952
2022-10-16T10:07:11.294Z,0.800000012
2022-10-16T10:08:11.796Z,0.800000012
2022-10-16T10:09:12.414Z,0.800000012
2022-10-16T10:10:13.142Z,0.699999988
2022-10-16T10:11:16.122Z,1.600000024
2022-10-16T10:12:15.127Z,1.299999952
2022-10-16T10:13:15.734Z,2.099999905
2022-10-16T10:14:16.229Z,1.700000048
2022-10-16T10:15:16.879Z,1.100000024
2022-10-16T10:16:17.499Z,0.800000012
2022-10-16T10:17:18.192Z,0.800000012
2022-10-16T10:18:18.687Z,1.200000048
2022-10-16T10:19:19.188Z,1.200000048
2022-10-16T10:20:19.792Z,0.899999976
2022-10-16T10:21:20.723Z,1.399999976
2022-10-16T10:22:22.135Z,0.899999976
2022-10-16T10:23:22.676Z,0.899999976
2022-10-16T10:24:24.107Z,0.800000012
2022-10-16T10:25:24.680Z,1
2022-10-16T10:26:25.374Z,0.800000012
2022-10-16T10:27:26.082Z,0.600000024
2022-10-16T10:28:26.661Z,0.600000024
2022-10-16T10:29:27.272Z,1.700000048
2022-10-16T10:30:28.153Z,0.600000024
2022-10-16T10:31:28.810Z,1.200000048
2022-10-16T10:32:30.234Z,1.200000048
2022-10-16T10:33:30.596Z,0.699999988
2022-10-16T10:34:31.244Z,0.800000012
2022-10-16T10:35:31.775Z,2.700000048
2022-10-16T10:37:03.647Z,1.5
2022-10-16T10:38:04.184Z,1.200000048
2022-10-16T10:39:04.877Z,1.100000024
2022-10-16T10:40:05.582Z,1
2022-10-16T10:41:06.838Z,1.100000024
2022-10-16T10:42:07.413Z,1.700000048
2022-10-16T10:43:08.020Z,1.100000024
2022-10-16T10:44:09.334Z,0.800000012
2022-10-16T10:45:09.939Z,0.699999988
2022-10-16T10:46:10.713Z,1.100000024
2022-10-16T10:47:11.331Z,0.800000012
2022-10-16T10:48:12.131Z,0.699999988
2022-10-16T10:49:12.685Z,1
2022-10-16T10:50:14.000Z,0.699999988
2022-10-16T10:51:15.316Z,1.100000024
2022-10-16T10:52:16.059Z,0.600000024
2022-10-16T10:53:16.614Z,1
2022-10-16T10:54:17.172Z,0.800000012
2022-10-16T10:55:17.974Z,1
2022-10-16T10:56:18.612Z,1
2022-10-16T10:57:19.295Z,0.800000012
2022-10-16T10:58:20.490Z,0.800000012
2022-10-16T10:59:21.059Z,1.299999952
2022-10-16T11:00:21.599Z,1.5
2022-10-16T11:01:22.834Z,0.699999988
2022-10-16T11:02:23.384Z,1
2022-10-16T11:03:23.959Z,1.100000024
2022-10-16T11:04:24.512Z,0.699999988
2022-10-16T11:05:25.123Z,0.800000012
2022-10-16T11:06:25.667Z,0.899999976
2022-10-16T11:07:26.423Z,0.899999976
2022-10-16T11:08:27.695Z,0.600000024
2022-10-16T11:09:28.311Z,0.699999988
2022-10-16T11:10:28.883Z,0.600000024
2022-10-16T11:11:30.382Z,0.800000012
2022-10-16T11:12:30.913Z,0.699999988
2022-10-16T11:13:32.690Z,0.600000024
2022-10-16T11:15:05.037Z,0.899999976
2022-10-16T11:16:05.708Z,0.600000024
2022-10-16T11:17:06.229Z,0.600000024
2022-10-16T11:18:07.318Z,0.800000012
2022-10-16T11:19:07.824Z,0.800000012
2022-10-16T11:20:08.446Z,0.600000024
2022-10-16T11:21:09.023Z,0.600000024
2022-10-16T11:22:10.197Z,0.800000012
2022-10-16T11:23:10.724Z,0.699999988
2022-10-16T11:24:11.796Z,0.600000024
2022-10-16T11:25:12.278Z,1.100000024
2022-10-16T11:26:12.796Z,1.200000048
2022-10-16T11:27:13.364Z,0.600000024
2022-10-16T11:28:13.929Z,0.699999988
2022-10-16T11:29:14.567Z,0.600000024
2022-10-16T11:30:15.034Z,0.699999988
2022-10-16T11:31:15.782Z,0.800000012
2022-10-16T11:32:17.117Z,1
2022-10-16T11:33:17.754Z,0.699999988
2022-10-16T11:34:18.271Z,0.600000024
2022-10-16T11:35:18.949Z,0.699999988
2022-10-16T11:36:20.388Z,0.699999988
2022-10-16T11:37:21.029Z,0.699999988
2022-10-16T11:38:21.578Z,0.800000012
2022-10-16T11:39:22.239Z,1.299999952
2022-10-16T11:40:22.782Z,0.699999988
2022-10-16T11:41:23.343Z,0.800000012